Time;durP1;ratioP1;P1;durP2;ratioP2;P2;SDS_P1;SDS_P2;PMS_P1;PMS_P2;Temp;Humidity;BMP_temperature;BMP_pressure;BME280_temperature;BME280_humidity;BME280_pressure;Samples;Min_cycle;Max_cycle;Signal;HPM_P1;HPM_P2
2022/10/15 00:02:24;;;;;;;;;;;20.10;68.70;;;;;;5069688;28;812;-70
2022/10/15 00:04:49;;;;;;;;;;;20.10;68.70;;;;;;5063393;28;1344;-69
2022/10/15 00:07:15;;;;;;;;;;;20.10;69.50;;;;;;5068586;28;883;-70
2022/10/15 00:09:40;;;;;;;;;;;20.10;68.70;;;;;;5060601;28;922;-70
2022/10/15 00:12:05;;;;;;;;;;;20.10;68.70;;;;;;5061922;28;1014;-68
2022/10/15 00:14:31;;;;;;;;;;;20.10;68.70;;;;;;5060499;28;1268;-70
2022/10/15 00:16:56;;;;;;;;;;;20.10;68.70;;;;;;5060987;28;845;-70
2022/10/15 00:19:22;;;;;;;;;;;20.10;68.70;;;;;;5062899;28;1957;-68
2022/10/15 00:21:47;;;;;;;;;;;20.10;68.70;;;;;;5063220;28;1260;-70
2022/10/15 00:24:13;;;;;;;;;;;20.10;68.70;;;;;;5056675;28;1269;-70
2022/10/15 00:26:38;;;;;;;;;;;20.10;68.70;;;;;;5061910;28;1042;-68
2022/10/15 00:29:03;;;;;;;;;;;20.10;68.80;;;;;;5063012;28;1580;-70
2022/10/15 00:31:29;;;;;;;;;;;20.10;68.80;;;;;;5063914;28;1446;-70
2022/10/15 00:33:55;;;;;;;;;;;20.10;68.90;;;;;;5062921;28;1650;-69
2022/10/15 00:36:22;;;;;;;;;;;20.10;68.80;;;;;;5059503;28;874;-69
2022/10/15 00:38:47;;;;;;;;;;;20.10;68.80;;;;;;5060799;28;796;-69
2022/10/15 00:41:14;;;;;;;;;;;20.10;68.80;;;;;;5059933;28;1981;-69
2022/10/15 00:43:41;;;;;;;;;;;20.10;68.80;;;;;;5062980;28;916;-69
2022/10/15 00:46:11;;;;;;;;;;;20.10;68.80;;;;;;5057065;28;1342;-70
2022/10/15 00:48:36;;;;;;;;;;;20.10;68.80;;;;;;5056367;28;1045;-70
2022/10/15 00:51:02;;;;;;;;;;;20.10;68.80;;;;;;5061692;28;1964;-69
2022/10/15 00:53:27;;;;;;;;;;;20.10;68.90;;;;;;5060747;28;1219;-69
2022/10/15 00:55:53;;;;;;;;;;;20.10;68.90;;;;;;5061661;28;1389;-69
2022/10/15 00:58:21;;;;;;;;;;;20.10;68.90;;;;;;5061628;28;1989;-70
2022/10/15 01:00:46;;;;;;;;;;;20.10;69.00;;;;;;5063760;28;1894;-70
2022/10/15 01:03:12;;;;;;;;;;;20.10;68.90;;;;;;5061002;28;1431;-71
2022/10/15 01:05:37;;;;;;;;;;;20.10;69.00;;;;;;5066233;28;1338;-70
2022/10/15 01:08:03;;;;;;;;;;;20.10;68.90;;;;;;5048584;28;1308;-69
2022/10/15 01:10:42;;;;;;;;;;;20.10;68.80;;;;;;5061157;28;1283;-70
2022/10/15 01:13:14;;;;;;;;;;;20.10;68.90;;;;;;5060432;28;1358;-68
2022/10/15 01:15:44;;;;;;;;;;;20.10;68.90;;;;;;5063498;28;1362;-68
2022/10/15 01:18:11;;;;;;;;;;;20.10;69.00;;;;;;5061950;28;1448;-68
2022/10/15 01:20:36;;;;;;;;;;;20.10;69.00;;;;;;5058243;28;1972;-69
2022/10/15 01:23:10;;;;;;;;;;;20.10;69.00;;;;;;5062646;28;1432;-69
2022/10/15 01:26:08;;;;;;;;;;;20.10;69.00;;;;;;5041930;28;1361;-70
2022/10/15 01:28:59;;;;;;;;;;;20.10;69.10;;;;;;5040635;28;1408;-70
2022/10/15 01:31:24;;;;;;;;;;;20.10;69.10;;;;;;5060974;28;1384;-69
2022/10/15 01:33:54;;;;;;;;;;;20.10;69.10;;;;;;5058378;28;1302;-69
2022/10/15 01:36:46;;;;;;;;;;;20.10;69.10;;;;;;5062625;28;1542;-69
2022/10/15 01:39:13;;;;;;;;;;;20.10;69.10;;;;;;5060236;28;1475;-69
2022/10/15 01:41:41;;;;;;;;;;;20.10;69.10;;;;;;5058917;28;1914;-67
2022/10/15 01:44:07;;;;;;;;;;;20.10;69.00;;;;;;5060400;28;2201;-69
2022/10/15 01:46:38;;;;;;;;;;;20.10;69.10;;;;;;5058905;28;1401;-69
2022/10/15 01:49:04;;;;;;;;;;;20.10;69.10;;;;;;5059569;28;1251;-69
2022/10/15 01:51:30;;;;;;;;;;;20.10;69.10;;;;;;5061281;28;1385;-69
2022/10/15 01:53:56;;;;;;;;;;;20.10;69.10;;;;;;5063519;28;1280;-71
2022/10/15 01:56:22;;;;;;;;;;;20.10;69.10;;;;;;5059193;28;954;-69
2022/10/15 01:58:48;;;;;;;;;;;20.10;69.20;;;;;;5044710;28;1287;-69
2022/10/15 02:01:14;;;;;;;;;;;20.10;69.10;;;;;;5058650;28;1898;-69
2022/10/15 02:03:49;;;;;;;;;;;20.10;69.10;;;;;;5062339;28;1080;-69
2022/10/15 02:06:17;;;;;;;;;;;20.10;69.10;;;;;;5059376;28;1207;-69
2022/10/15 02:09:01;;;;;;;;;;;20.10;69.20;;;;;;5057571;28;882;-69
2022/10/15 02:11:27;;;;;;;;;;;20.10;69.20;;;;;;5066896;28;1183;-68
2022/10/15 02:14:07;;;;;;;;;;;20.10;69.20;;;;;;5058997;28;915;-68
2022/10/15 02:16:33;;;;;;;;;;;20.10;69.20;;;;;;5048730;28;1442;-69
2022/10/15 02:19:04;;;;;;;;;;;20.10;69.20;;;;;;5059789;28;947;-69
2022/10/15 02:21:56;;;;;;;;;;;20.10;69.20;;;;;;5051103;28;1950;-68
2022/10/15 02:24:22;;;;;;;;;;;20.10;69.30;;;;;;5032387;28;1243;-70
2022/10/15 02:26:48;;;;;;;;;;;20.10;69.30;;;;;;5054097;28;1074;-69
2022/10/15 02:29:15;;;;;;;;;;;20.10;69.30;;;;;;5056595;28;851;-68
2022/10/15 02:31:41;;;;;;;;;;;20.10;69.30;;;;;;5059485;28;914;-68
2022/10/15 02:34:08;;;;;;;;;;;20.10;69.30;;;;;;5061342;28;1310;-69
2022/10/15 02:36:33;;;;;;;;;;;20.10;69.30;;;;;;5057415;28;1396;-69
2022/10/15 02:38:58;;;;;;;;;;;20.10;69.30;;;;;;5061172;28;1383;-67
2022/10/15 02:41:25;;;;;;;;;;;20.10;69.30;;;;;;5059261;28;1906;-68
2022/10/15 02:43:50;;;;;;;;;;;20.10;69.30;;;;;;5057919;28;1369;-69
2022/10/15 02:46:16;;;;;;;;;;;20.10;69.40;;;;;;5063880;28;1296;-69
2022/10/15 02:48:41;;;;;;;;;;;20.10;69.30;;;;;;5060384;28;1457;-68
2022/10/15 02:51:07;;;;;;;;;;;20.10;69.30;;;;;;5061518;28;1405;-69
2022/10/15 02:53:32;;;;;;;;;;;20.10;69.30;;;;;;5057560;28;1396;-69
2022/10/15 02:55:58;;;;;;;;;;;20.10;69.40;;;;;;5068070;28;1371;-69
2022/10/15 02:58:23;;;;;;;;;;;20.10;69.40;;;;;;5066428;28;1443;-69
2022/10/15 03:00:49;;;;;;;;;;;20.10;69.30;;;;;;5069346;28;1950;-70
2022/10/15 03:03:15;;;;;;;;;;;20.10;69.40;;;;;;5067614;28;1294;-70
2022/10/15 03:05:40;;;;;;;;;;;20.10;69.40;;;;;;5068582;28;1376;-70
2022/10/15 03:08:06;;;;;;;;;;;20.10;69.60;;;;;;5061238;28;1772;-69
2022/10/15 03:10:31;;;;;;;;;;;20.10;69.40;;;;;;5063824;28;1392;-69
2022/10/15 03:13:00;;;;;;;;;;;20.10;69.40;;;;;;5062638;28;1587;-69
2022/10/15 03:15:26;;;;;;;;;;;20.10;69.40;;;;;;5060726;28;1424;-70
2022/10/15 03:17:51;;;;;;;;;;;20.10;69.40;;;;;;5065980;28;1398;-69
2022/10/15 03:20:17;;;;;;;;;;;20.10;69.40;;;;;;5066796;28;1890;-69
2022/10/15 03:22:42;;;;;;;;;;;20.10;69.50;;;;;;5059829;28;1595;-69
2022/10/15 03:25:08;;;;;;;;;;;20.10;69.50;;;;;;5059675;28;1383;-69
2022/10/15 03:27:33;;;;;;;;;;;20.10;69.40;;;;;;5057958;28;1421;-69
2022/10/15 03:29:58;;;;;;;;;;;20.10;69.40;;;;;;5061294;28;1255;-69
2022/10/15 03:32:24;;;;;;;;;;;20.10;69.50;;;;;;5059183;28;1305;-69
2022/10/15 03:34:49;;;;;;;;;;;20.10;69.50;;;;;;5058724;28;1392;-69
2022/10/15 03:37:15;;;;;;;;;;;20.10;69.50;;;;;;5063523;28;1356;-69
2022/10/15 03:39:40;;;;;;;;;;;20.10;69.50;;;;;;5063099;28;1882;-69
2022/10/15 03:42:06;;;;;;;;;;;20.10;69.50;;;;;;5062890;28;1629;-68
2022/10/15 03:44:33;;;;;;;;;;;20.10;69.50;;;;;;5059902;28;1371;-68
2022/10/15 03:46:58;;;;;;;;;;;20.10;69.50;;;;;;5059273;28;859;-68
2022/10/15 03:49:23;;;;;;;;;;;20.10;69.50;;;;;;5063980;28;1256;-68
2022/10/15 03:51:49;;;;;;;;;;;20.10;69.50;;;;;;5060779;28;1029;-68
2022/10/15 03:54:14;;;;;;;;;;;20.10;69.50;;;;;;5058265;28;1279;-70
2022/10/15 03:56:40;;;;;;;;;;;20.10;69.60;;;;;;5062309;28;1059;-71
2022/10/15 03:59:05;;;;;;;;;;;20.10;69.50;;;;;;5060094;28;1169;-70
2022/10/15 04:01:31;;;;;;;;;;;20.10;69.50;;;;;;5061714;28;1991;-69
2022/10/15 04:03:56;;;;;;;;;;;20.10;69.60;;;;;;5061850;28;1337;-69
2022/10/15 04:06:21;;;;;;;;;;;20.10;69.60;;;;;;5060601;28;815;-70
2022/10/15 04:08:47;;;;;;;;;;;20.10;69.80;;;;;;5054025;28;920;-69
2022/10/15 04:11:12;;;;;;;;;;;20.10;69.60;;;;;;5057378;28;923;-70
2022/10/15 04:13:38;;;;;;;;;;;20.10;69.60;;;;;;5069750;28;887;-70
2022/10/15 04:16:04;;;;;;;;;;;20.10;69.60;;;;;;5064746;28;1240;-70
2022/10/15 04:18:29;;;;;;;;;;;20.10;69.60;;;;;;5065091;28;1231;-70
2022/10/15 04:20:57;;;;;;;;;;;20.10;69.60;;;;;;5065754;28;1953;-70
2022/10/15 04:23:23;;;;;;;;;;;20.10;69.60;;;;;;5057745;28;945;-68
2022/10/15 04:25:48;;;;;;;;;;;20.10;69.60;;;;;;5058623;28;1296;-69
2022/10/15 04:28:14;;;;;;;;;;;20.10;69.60;;;;;;5060644;28;1070;-69
2022/10/15 04:30:39;;;;;;;;;;;20.10;69.60;;;;;;5068931;28;1501;-69
2022/10/15 04:33:04;;;;;;;;;;;20.10;69.60;;;;;;5061808;28;1358;-69
2022/10/15 04:35:30;;;;;;;;;;;20.10;69.60;;;;;;5060473;28;1346;-69
2022/10/15 04:37:57;;;;;;;;;;;20.10;69.60;;;;;;5066437;28;1655;-70
2022/10/15 04:40:22;;;;;;;;;;;20.10;69.60;;;;;;5053708;28;1918;-70
2022/10/15 04:42:48;;;;;;;;;;;20.10;69.70;;;;;;5059557;28;1065;-70
2022/10/15 04:45:13;;;;;;;;;;;20.10;69.70;;;;;;5057975;28;1275;-69
2022/10/15 04:47:39;;;;;;;;;;;20.10;69.70;;;;;;5062213;28;797;-70
2022/10/15 04:50:04;;;;;;;;;;;20.10;69.70;;;;;;5060347;28;779;-70
2022/10/15 04:52:30;;;;;;;;;;;20.10;69.60;;;;;;5063584;28;1058;-69
2022/10/15 04:54:57;;;;;;;;;;;20.10;69.70;;;;;;5066539;28;1315;-69
2022/10/15 04:57:22;;;;;;;;;;;20.10;69.70;;;;;;5058383;28;831;-69
2022/10/15 04:59:48;;;;;;;;;;;20.10;69.70;;;;;;5056672;28;1965;-69
2022/10/15 05:02:13;;;;;;;;;;;20.10;69.70;;;;;;5059112;28;878;-69
2022/10/15 05:04:39;;;;;;;;;;;20.10;69.70;;;;;;5057775;28;1251;-69
2022/10/15 05:07:04;;;;;;;;;;;20.10;69.80;;;;;;5059463;28;843;-69
2022/10/15 05:09:29;;;;;;;;;;;20.10;69.80;;;;;;5057871;28;1002;-68
2022/10/15 05:11:55;;;;;;;;;;;20.10;69.70;;;;;;5058364;28;1010;-68
2022/10/15 05:14:21;;;;;;;;;;;20.10;69.70;;;;;;5068658;28;1500;-68
2022/10/15 05:16:46;;;;;;;;;;;20.10;69.70;;;;;;5060690;28;1001;-69
2022/10/15 05:19:12;;;;;;;;;;;20.10;69.70;;;;;;5060400;28;1001;-69
2022/10/15 05:21:37;;;;;;;;;;;20.10;69.70;;;;;;5060432;28;1894;-70
2022/10/15 05:24:04;;;;;;;;;;;20.10;69.70;;;;;;5059928;28;1236;-69
2022/10/15 05:26:29;;;;;;;;;;;20.10;69.80;;;;;;5058704;28;822;-70
2022/10/15 05:28:55;;;;;;;;;;;20.10;69.80;;;;;;5056955;28;1268;-69
2022/10/15 05:31:21;;;;;;;;;;;20.10;69.80;;;;;;5060331;28;910;-67
2022/10/15 05:33:47;;;;;;;;;;;20.10;70.60;;;;;;5057280;28;1038;-68
2022/10/15 05:36:22;;;;;;;;;;;20.10;69.80;;;;;;5058239;28;1149;-69
2022/10/15 05:38:48;;;;;;;;;;;20.10;69.80;;;;;;5060322;28;1009;-70
2022/10/15 05:41:14;;;;;;;;;;;20.10;69.80;;;;;;5059704;28;1902;-70
2022/10/15 05:43:39;;;;;;;;;;;20.10;69.80;;;;;;5059137;28;853;-70
2022/10/15 05:46:05;;;;;;;;;;;20.10;69.80;;;;;;5040701;28;1291;-70
2022/10/15 05:48:30;;;;;;;;;;;20.10;69.80;;;;;;5056243;28;1173;-68
2022/10/15 05:50:59;;;;;;;;;;;20.10;69.80;;;;;;5059084;28;1077;-70
2022/10/15 05:53:25;;;;;;;;;;;20.10;69.80;;;;;;5054749;28;1100;-69
2022/10/15 05:55:51;;;;;;;;;;;20.10;69.80;;;;;;5058639;28;1369;-70
2022/10/15 05:58:17;;;;;;;;;;;20.10;69.80;;;;;;5049212;28;4081;-69
2022/10/15 06:00:42;;;;;;;;;;;20.10;70.40;;;;;;5049021;28;1965;-69
2022/10/15 06:03:10;;;;;;;;;;;20.10;70.00;;;;;;5057659;28;870;-69
2022/10/15 06:05:35;;;;;;;;;;;20.10;69.80;;;;;;5059436;28;1361;-70
2022/10/15 06:08:01;;;;;;;;;;;20.10;69.80;;;;;;5056549;28;1009;-69
2022/10/15 06:10:27;;;;;;;;;;;20.10;69.80;;;;;;5056254;28;766;-69
2022/10/15 06:12:52;;;;;;;;;;;20.10;69.70;;;;;;5058010;28;878;-69
2022/10/15 06:15:18;;;;;;;;;;;20.10;69.70;;;;;;5057146;28;1317;-68
2022/10/15 06:17:43;;;;;;;;;;;20.20;69.70;;;;;;5055455;28;882;-68
2022/10/15 06:20:09;;;;;;;;;;;20.20;69.60;;;;;;5056912;28;1886;-68
2022/10/15 06:22:35;;;;;;;;;;;20.20;69.50;;;;;;5054958;28;1006;-69
2022/10/15 06:25:00;;;;;;;;;;;20.20;69.40;;;;;;5064305;28;1278;-69
2022/10/15 06:27:26;;;;;;;;;;;20.30;69.40;;;;;;5058569;28;1334;-68
2022/10/15 06:29:51;;;;;;;;;;;20.30;69.40;;;;;;5058763;28;926;-69
2022/10/15 06:32:17;;;;;;;;;;;20.30;69.30;;;;;;5057034;28;1333;-70
2022/10/15 06:34:42;;;;;;;;;;;20.30;69.20;;;;;;5054141;28;1334;-69
2022/10/15 06:37:08;;;;;;;;;;;20.30;69.10;;;;;;5052546;28;870;-68
2022/10/15 06:39:33;;;;;;;;;;;20.40;69.10;;;;;;5052853;28;1929;-69
2022/10/15 06:41:59;;;;;;;;;;;20.40;69.90;;;;;;5053679;28;895;-68
2022/10/15 06:44:24;;;;;;;;;;;20.40;69.00;;;;;;5055450;28;1224;-70
2022/10/15 06:46:49;;;;;;;;;;;20.40;69.00;;;;;;5053793;28;867;-69
2022/10/15 06:49:15;;;;;;;;;;;20.40;68.90;;;;;;5058640;28;871;-69
2022/10/15 06:51:40;;;;;;;;;;;20.40;68.90;;;;;;5055219;28;1041;-70
2022/10/15 06:54:06;;;;;;;;;;;20.40;68.90;;;;;;5054091;28;1326;-67
2022/10/15 06:56:31;;;;;;;;;;;20.40;68.80;;;;;;5055122;28;931;-67
2022/10/15 06:58:57;;;;;;;;;;;20.40;68.80;;;;;;5057902;28;1065;-69
2022/10/15 07:01:22;;;;;;;;;;;20.40;68.80;;;;;;5057698;28;1969;-69
2022/10/15 07:03:48;;;;;;;;;;;20.40;68.80;;;;;;5055249;28;1911;-68
2022/10/15 07:06:14;;;;;;;;;;;20.40;68.80;;;;;;5058956;28;1377;-68
2022/10/15 07:08:39;;;;;;;;;;;20.40;68.80;;;;;;5058772;28;1197;-68
2022/10/15 07:11:05;;;;;;;;;;;20.40;68.80;;;;;;5059738;28;1224;-68
2022/10/15 07:13:30;;;;;;;;;;;20.50;68.80;;;;;;5050839;28;4120;-68
2022/10/15 07:15:56;;;;;;;;;;;20.40;68.80;;;;;;5061639;28;1773;-68
2022/10/15 07:18:21;;;;;;;;;;;20.40;68.80;;;;;;5059876;28;821;-68
2022/10/15 07:20:47;;;;;;;;;;;20.50;68.80;;;;;;5060655;28;1973;-68
2022/10/15 07:23:12;;;;;;;;;;;20.40;68.80;;;;;;5061431;28;895;-67
2022/10/15 07:25:38;;;;;;;;;;;20.50;68.80;;;;;;5062233;28;1414;-67
2022/10/15 07:28:04;;;;;;;;;;;20.50;68.80;;;;;;5063117;28;1415;-68
2022/10/15 07:30:29;;;;;;;;;;;20.40;68.80;;;;;;5062726;28;1317;-68
2022/10/15 07:32:55;;;;;;;;;;;20.50;68.90;;;;;;5063307;28;1402;-70
2022/10/15 07:35:21;;;;;;;;;;;20.40;68.80;;;;;;5061160;28;1838;-72
2022/10/15 07:37:46;;;;;;;;;;;20.50;69.00;;;;;;5064547;28;1048;-72
2022/10/15 07:40:12;;;;;;;;;;;20.40;68.80;;;;;;5058739;28;1961;-72
2022/10/15 07:42:39;;;;;;;;;;;20.50;68.90;;;;;;5059259;28;1453;-69
2022/10/15 07:45:05;;;;;;;;;;;20.40;68.90;;;;;;5061123;28;1998;-68
2022/10/15 07:47:30;;;;;;;;;;;20.40;68.90;;;;;;5048418;28;1311;-69
2022/10/15 07:49:56;;;;;;;;;;;20.40;68.90;;;;;;5055271;28;1302;-68
2022/10/15 07:52:21;;;;;;;;;;;20.40;68.90;;;;;;5059636;28;1380;-68
2022/10/15 07:54:47;;;;;;;;;;;20.40;68.90;;;;;;5068507;28;1334;-68
2022/10/15 07:57:12;;;;;;;;;;;20.40;68.90;;;;;;5060759;28;1179;-68
2022/10/15 07:59:38;;;;;;;;;;;20.40;68.90;;;;;;5057877;28;1905;-69
2022/10/15 08:02:03;;;;;;;;;;;20.40;68.90;;;;;;5060629;28;832;-68
2022/10/15 08:04:29;;;;;;;;;;;20.40;69.10;;;;;;5068342;28;1358;-68
2022/10/15 08:06:54;;;;;;;;;;;20.40;68.90;;;;;;5059873;28;863;-68
2022/10/15 08:09:19;;;;;;;;;;;20.40;69.00;;;;;;5057369;28;853;-69
2022/10/15 08:11:45;;;;;;;;;;;20.40;69.00;;;;;;5059317;28;918;-69
2022/10/15 08:14:10;;;;;;;;;;;20.40;69.10;;;;;;5050955;28;4444;-68
2022/10/15 08:16:36;;;;;;;;;;;20.40;69.10;;;;;;5060635;28;4213;-68
2022/10/15 08:19:01;;;;;;;;;;;20.40;69.10;;;;;;5059503;28;807;-68
2022/10/15 08:21:27;;;;;;;;;;;20.40;69.20;;;;;;5061306;28;1910;-68
2022/10/15 08:23:52;;;;;;;;;;;20.40;69.10;;;;;;5043496;28;4549;-68
2022/10/15 08:26:18;;;;;;;;;;;20.40;69.10;;;;;;5057183;28;4153;-69
2022/10/15 08:28:43;;;;;;;;;;;20.40;69.10;;;;;;5048811;28;4911;-69
2022/10/15 08:31:09;;;;;;;;;;;20.40;69.20;;;;;;5041951;28;4434;-68
2022/10/15 08:33:34;;;;;;;;;;;20.40;69.10;;;;;;5040824;28;4455;-68
2022/10/15 08:36:00;;;;;;;;;;;20.40;69.20;;;;;;5047870;28;4118;-68
2022/10/15 08:38:26;;;;;;;;;;;20.40;69.20;;;;;;5051918;28;4311;-68
2022/10/15 08:40:52;;;;;;;;;;;20.40;69.30;;;;;;5044603;28;4130;-68
2022/10/15 08:43:25;;;;;;;;;;;20.40;69.30;;;;;;5046494;28;4097;-68
2022/10/15 08:45:51;;;;;;;;;;;20.40;69.30;;;;;;5048665;28;4202;-68
2022/10/15 08:48:18;;;;;;;;;;;20.40;69.30;;;;;;5061619;28;1229;-68
2022/10/15 08:50:43;;;;;;;;;;;20.40;69.30;;;;;;5047773;28;1542;-68
2022/10/15 08:53:12;;;;;;;;;;;20.40;69.40;;;;;;5059478;28;970;-69
2022/10/15 08:55:38;;;;;;;;;;;20.40;69.30;;;;;;5059372;28;1256;-68
2022/10/15 08:58:06;;;;;;;;;;;20.40;69.40;;;;;;5059924;28;929;-68
2022/10/15 09:00:42;;;;;;;;;;;20.40;69.40;;;;;;5060547;28;1934;-68
2022/10/15 09:03:10;;;;;;;;;;;20.40;69.50;;;;;;5058931;28;1044;-69
2022/10/15 09:05:46;;;;;;;;;;;20.40;69.40;;;;;;5056586;28;1219;-69
2022/10/15 09:08:15;;;;;;;;;;;20.30;69.30;;;;;;5057986;28;891;-69
2022/10/15 09:10:42;;;;;;;;;;;20.30;69.40;;;;;;5056174;28;898;-68
2022/10/15 09:13:10;;;;;;;;;;;20.40;69.40;;;;;;5058542;28;1010;-69
2022/10/15 09:15:36;;;;;;;;;;;20.30;69.30;;;;;;5059540;28;1284;-69
2022/10/15 09:18:02;;;;;;;;;;;20.30;69.40;;;;;;5062111;28;1021;-69
2022/10/15 09:20:33;;;;;;;;;;;20.30;69.40;;;;;;5062512;28;1973;-69
2022/10/15 09:22:59;;;;;;;;;;;20.30;69.40;;;;;;5062199;28;1428;-69
2022/10/15 09:25:24;;;;;;;;;;;20.30;69.40;;;;;;5059296;28;1251;-69
2022/10/15 09:27:50;;;;;;;;;;;20.30;69.50;;;;;;5062564;28;1290;-69
2022/10/15 09:30:18;;;;;;;;;;;20.30;69.50;;;;;;5060503;28;908;-69
2022/10/15 09:33:04;;;;;;;;;;;20.30;69.60;;;;;;5057724;28;825;-68
2022/10/15 09:35:31;;;;;;;;;;;20.30;69.50;;;;;;5056089;28;1312;-68
2022/10/15 09:38:15;;;;;;;;;;;20.30;69.50;;;;;;5059790;28;1142;-68
2022/10/15 09:40:53;;;;;;;;;;;20.30;69.50;;;;;;5055740;28;1993;-69
2022/10/15 09:43:22;;;;;;;;;;;20.30;69.60;;;;;;5058401;28;1021;-68
2022/10/15 09:45:48;;;;;;;;;;;20.30;69.60;;;;;;5056287;28;1288;-68
2022/10/15 09:48:16;;;;;;;;;;;20.30;69.60;;;;;;5060331;28;782;-68
2022/10/15 09:50:43;;;;;;;;;;;20.30;69.70;;;;;;5056432;28;1310;-68
2022/10/15 09:53:08;;;;;;;;;;;20.30;69.60;;;;;;5056584;28;929;-68
2022/10/15 09:55:34;;;;;;;;;;;20.30;69.70;;;;;;5056573;28;1276;-68
2022/10/15 09:58:04;;;;;;;;;;;20.30;69.60;;;;;;5061299;28;842;-68
2022/10/15 10:00:48;;;;;;;;;;;20.30;69.70;;;;;;5058654;28;1953;-68
2022/10/15 10:03:13;;;;;;;;;;;20.30;69.70;;;;;;5059933;28;1049;-68
2022/10/15 10:05:39;;;;;;;;;;;20.30;69.70;;;;;;5058256;28;1282;-69
2022/10/15 10:08:08;;;;;;;;;;;20.30;69.90;;;;;;5059645;28;2121;-68
2022/10/15 10:10:33;;;;;;;;;;;20.30;69.70;;;;;;5059082;28;1532;-68
2022/10/15 10:12:59;;;;;;;;;;;20.30;69.70;;;;;;5059323;28;1470;-69
2022/10/15 10:15:34;;;;;;;;;;;20.30;69.80;;;;;;5053516;28;1263;-69
2022/10/15 10:18:00;;;;;;;;;;;20.30;69.80;;;;;;5052711;28;807;-69
2022/10/15 10:20:29;;;;;;;;;;;20.30;69.80;;;;;;5061785;28;1963;-69
2022/10/15 10:22:55;;;;;;;;;;;20.30;69.80;;;;;;5061059;28;803;-70
2022/10/15 10:25:30;;;;;;;;;;;20.30;69.80;;;;;;5060893;28;1350;-70
2022/10/15 10:27:56;;;;;;;;;;;20.30;69.80;;;;;;5060460;28;1046;-69
2022/10/15 10:30:22;;;;;;;;;;;20.30;69.80;;;;;;5056463;28;837;-69
2022/10/15 10:32:47;;;;;;;;;;;20.30;70.40;;;;;;5059389;28;1168;-69
2022/10/15 10:35:19;;;;;;;;;;;20.30;69.90;;;;;;5058148;28;1297;-69
2022/10/15 10:37:45;;;;;;;;;;;20.30;69.90;;;;;;5057367;28;1157;-69
2022/10/15 10:40:25;;;;;;;;;;;20.30;70.00;;;;;;5057494;28;1918;-69
2022/10/15 10:43:08;;;;;;;;;;;20.30;69.90;;;;;;5057922;28;1029;-69
2022/10/15 10:45:33;;;;;;;;;;;20.30;69.90;;;;;;5061854;28;1372;-70
2022/10/15 10:48:13;;;;;;;;;;;20.30;70.00;;;;;;5057735;28;891;-69
2022/10/15 10:50:40;;;;;;;;;;;20.30;70.00;;;;;;5060314;28;1001;-69
2022/10/15 10:53:19;;;;;;;;;;;20.30;70.00;;;;;;5057150;28;806;-69
2022/10/15 10:55:45;;;;;;;;;;;20.30;70.00;;;;;;5060237;28;1377;-69
2022/10/15 10:58:13;;;;;;;;;;;20.20;70.00;;;;;;5057070;28;1010;-69
2022/10/15 11:00:42;;;;;;;;;;;20.20;69.90;;;;;;5056117;28;1959;-69
2022/10/15 11:03:19;;;;;;;;;;;20.30;70.00;;;;;;5061291;28;986;-69
2022/10/15 11:05:44;;;;;;;;;;;20.30;70.00;;;;;;5057011;28;1360;-69
2022/10/15 11:08:17;;;;;;;;;;;20.30;70.10;;;;;;5057030;28;925;-70
2022/10/15 11:10:47;;;;;;;;;;;20.20;69.90;;;;;;5059809;28;921;-69
2022/10/15 11:13:28;;;;;;;;;;;20.20;70.00;;;;;;5057143;28;870;-69
2022/10/15 11:16:12;;;;;;;;;;;20.30;70.00;;;;;;5057829;28;1264;-69
2022/10/15 11:18:55;;;;;;;;;;;20.20;70.00;;;;;;5060140;28;877;-69
2022/10/15 11:21:20;;;;;;;;;;;20.20;70.00;;;;;;5057555;28;1977;-69
2022/10/15 11:23:45;;;;;;;;;;;20.20;70.10;;;;;;5057470;28;1026;-69
2022/10/15 11:26:30;;;;;;;;;;;20.20;70.00;;;;;;5055429;28;1418;-69
2022/10/15 11:29:05;;;;;;;;;;;20.20;70.10;;;;;;5060116;28;1466;-69
2022/10/15 11:31:36;;;;;;;;;;;20.20;70.10;;;;;;5057716;28;1355;-69
2022/10/15 11:34:20;;;;;;;;;;;20.20;70.10;;;;;;5054143;28;1272;-70
2022/10/15 11:37:04;;;;;;;;;;;20.20;70.10;;;;;;5058199;28;906;-71
2022/10/15 11:39:45;;;;;;;;;;;20.20;70.10;;;;;;5056947;28;991;-69
2022/10/15 11:42:14;;;;;;;;;;;20.20;70.10;;;;;;5059211;28;882;-71
2022/10/15 11:44:45;;;;;;;;;;;20.20;70.10;;;;;;5055571;28;1268;-70
2022/10/15 11:47:16;;;;;;;;;;;20.20;70.10;;;;;;5059150;28;796;-71
2022/10/15 11:49:42;;;;;;;;;;;20.20;70.10;;;;;;5058329;28;832;-70
2022/10/15 11:52:29;;;;;;;;;;;20.20;70.10;;;;;;5057425;28;873;-69
2022/10/15 11:55:03;;;;;;;;;;;20.20;70.10;;;;;;5057258;28;1283;-70
2022/10/15 11:57:28;;;;;;;;;;;20.20;70.20;;;;;;5059907;28;942;-71
2022/10/15 11:59:55;;;;;;;;;;;20.20;70.20;;;;;;5063563;28;1898;-69
2022/10/15 12:02:21;;;;;;;;;;;20.20;70.20;;;;;;5063047;28;811;-70
2022/10/15 12:04:47;;;;;;;;;;;20.20;70.20;;;;;;5060441;28;1229;-70
2022/10/15 12:07:20;;;;;;;;;;;20.20;70.20;;;;;;5061605;28;850;-70
2022/10/15 12:09:47;;;;;;;;;;;20.20;70.10;;;;;;5060621;28;906;-70
2022/10/15 12:12:31;;;;;;;;;;;20.20;70.20;;;;;;5060706;28;1001;-70
2022/10/15 12:15:02;;;;;;;;;;;20.20;70.10;;;;;;5060406;28;1411;-69
2022/10/15 12:17:35;;;;;;;;;;;20.20;70.20;;;;;;5060173;28;902;-69
2022/10/15 12:20:06;;;;;;;;;;;20.20;70.20;;;;;;5065170;28;1890;-69
2022/10/15 12:22:36;;;;;;;;;;;20.20;70.20;;;;;;5061126;28;880;-69
2022/10/15 12:25:02;;;;;;;;;;;20.20;70.30;;;;;;5057776;28;1270;-70
2022/10/15 12:27:29;;;;;;;;;;;20.20;70.20;;;;;;5064328;28;1267;-69
2022/10/15 12:30:00;;;;;;;;;;;20.20;70.30;;;;;;5062652;28;805;-69
2022/10/15 12:32:26;;;;;;;;;;;20.20;70.30;;;;;;5061480;28;982;-69
2022/10/15 12:34:55;;;;;;;;;;;20.20;70.30;;;;;;5059132;28;1368;-69
2022/10/15 12:37:21;;;;;;;;;;;20.20;70.40;;;;;;5062793;28;932;-69
2022/10/15 12:39:47;;;;;;;;;;;20.20;70.40;;;;;;5058240;28;824;-69
2022/10/15 12:42:20;;;;;;;;;;;20.20;70.40;;;;;;5059063;28;1430;-69
2022/10/15 12:44:47;;;;;;;;;;;20.20;70.30;;;;;;5055595;28;1268;-69
2022/10/15 12:47:12;;;;;;;;;;;20.20;70.30;;;;;;5058880;28;1108;-69
2022/10/15 12:49:41;;;;;;;;;;;20.20;70.30;;;;;;5060641;28;990;-69
2022/10/15 12:52:25;;;;;;;;;;;20.20;70.30;;;;;;5059512;28;868;-69
2022/10/15 12:54:50;;;;;;;;;;;20.20;70.30;;;;;;5058530;28;1278;-70
2022/10/15 12:57:33;;;;;;;;;;;20.20;70.30;;;;;;5059151;28;945;-70
2022/10/15 13:00:16;;;;;;;;;;;20.20;70.30;;;;;;5060546;28;1890;-70
2022/10/15 13:02:42;;;;;;;;;;;20.20;70.40;;;;;;5061727;28;879;-69
2022/10/15 13:05:11;;;;;;;;;;;20.20;70.40;;;;;;5060892;28;1284;-69
2022/10/15 13:07:37;;;;;;;;;;;20.20;70.40;;;;;;5060516;28;1415;-70
2022/10/15 13:10:03;;;;;;;;;;;20.20;70.40;;;;;;5057535;28;1961;-69
2022/10/15 13:12:29;;;;;;;;;;;20.20;70.40;;;;;;5062789;28;1434;-69
2022/10/15 13:14:56;;;;;;;;;;;20.20;70.40;;;;;;5056446;28;1273;-69
2022/10/15 13:17:21;;;;;;;;;;;20.20;70.40;;;;;;5062058;28;796;-69
2022/10/15 13:19:47;;;;;;;;;;;20.20;70.40;;;;;;5057184;28;1194;-69
2022/10/15 13:22:20;;;;;;;;;;;20.20;70.40;;;;;;5060936;28;1910;-69
2022/10/15 13:24:45;;;;;;;;;;;20.20;70.40;;;;;;5057467;28;1252;-69
2022/10/15 13:27:20;;;;;;;;;;;20.20;70.50;;;;;;5060980;28;943;-69
2022/10/15 13:29:56;;;;;;;;;;;20.20;70.50;;;;;;5059268;28;950;-70
2022/10/15 13:32:21;;;;;;;;;;;20.20;70.50;;;;;;5062137;28;1443;-69
2022/10/15 13:34:47;;;;;;;;;;;20.20;70.50;;;;;;5054967;28;1393;-68
2022/10/15 13:37:15;;;;;;;;;;;20.20;70.50;;;;;;5057161;28;963;-69
2022/10/15 13:39:41;;;;;;;;;;;20.20;70.50;;;;;;5058425;28;860;-69
2022/10/15 13:42:13;;;;;;;;;;;20.20;70.50;;;;;;5064219;28;1918;-68
2022/10/15 13:44:38;;;;;;;;;;;20.20;70.50;;;;;;5056134;28;1241;-69
2022/10/15 13:47:36;;;;;;;;;;;20.20;70.50;;;;;;5059983;28;796;-70
2022/10/15 13:50:21;;;;;;;;;;;20.20;70.50;;;;;;5027343;28;1639;-69
2022/10/15 13:52:54;;;;;;;;;;;20.20;70.50;;;;;;5055450;28;1355;-68
2022/10/15 13:55:21;;;;;;;;;;;20.20;70.50;;;;;;5056944;28;1232;-69
2022/10/15 13:57:47;;;;;;;;;;;20.20;70.50;;;;;;5056157;28;843;-68
2022/10/15 14:00:19;;;;;;;;;;;20.20;70.60;;;;;;5060443;28;1890;-68
2022/10/15 14:02:45;;;;;;;;;;;20.20;70.50;;;;;;5056205;28;923;-68
2022/10/15 14:05:13;;;;;;;;;;;20.20;70.50;;;;;;5056214;28;1353;-69
2022/10/15 14:07:39;;;;;;;;;;;20.20;70.60;;;;;;5058835;28;868;-68
2022/10/15 14:10:04;;;;;;;;;;;20.20;70.60;;;;;;5056673;28;858;-69
2022/10/15 14:12:30;;;;;;;;;;;20.20;70.60;;;;;;5052873;28;1193;-69
2022/10/15 14:14:55;;;;;;;;;;;20.20;70.60;;;;;;5051949;28;1343;-69
2022/10/15 14:17:21;;;;;;;;;;;20.20;70.60;;;;;;5053130;28;1322;-69
2022/10/15 14:19:56;;;;;;;;;;;20.20;70.60;;;;;;5053698;28;1072;-69
2022/10/15 14:22:22;;;;;;;;;;;20.20;70.60;;;;;;5058541;28;1101;-69
2022/10/15 14:24:52;;;;;;;;;;;20.20;70.60;;;;;;5051030;28;1241;-69
2022/10/15 14:27:19;;;;;;;;;;;20.20;70.60;;;;;;5055548;28;1243;-68
2022/10/15 14:29:45;;;;;;;;;;;20.20;70.60;;;;;;5057771;28;957;-68
2022/10/15 14:32:17;;;;;;;;;;;20.20;70.60;;;;;;5058189;28;1061;-69
2022/10/15 14:34:43;;;;;;;;;;;20.20;70.70;;;;;;5059298;28;1267;-69
2022/10/15 14:37:27;;;;;;;;;;;20.20;70.60;;;;;;5053726;28;2224;-68
2022/10/15 14:40:00;;;;;;;;;;;20.20;70.50;;;;;;5054817;28;1901;-68